This is the latest recevied weather packets stored in our database for station/object W4OA. If no packets are shown the sender has not sent any weather packets the latest 10 day(s).
| Time | Temp. | Humidity | Pressure | Rain* | Wind** | Luminosity | Snow |
|---|---|---|---|---|---|---|---|
| 1777494298 | 27.22° C | 67% | 1005 hPa | 0 mm | - | 0 W/m² | - |
| 1777491298 | 27.78° C | 66% | 1006 hPa | 0 mm | - | 0 W/m² | - |
| 1777490699 | 27.22° C | 67% | 1006 hPa | 0 mm | - | 0 W/m² | - |
| 1777489198 | 27.22° C | 69% | 1007 hPa | 0 mm | - | 0 W/m² | - |
| 1777488898 | 27.22° C | 69% | 1007 hPa | 0 mm | - | 0 W/m² | - |
| 1777487098 | 27.22° C | 67% | 1007 hPa | 0 mm | - | 0 W/m² | - |
| 1777485898 | 26.67° C | 69% | 1007 hPa | 0 mm | - | 0 W/m² | - |
| 1777483799 | 25° C | 73% | 1007 hPa | 0 mm | - | 0 W/m² | - |
| 1777483499 | 25° C | 74% | 1007 hPa | 0 mm | - | 0 W/m² | - |
| 1777483199 | 25.56° C | 73% | 1008 hPa | 0 mm | - | 0 W/m² | - |
| 1777482599 | 24.44° C | 76% | 1008 hPa | 0 mm | - | 0 W/m² | - |
| 1777482299 | 24.44° C | 76% | 1008 hPa | 0 mm | - | 0 W/m² | - |
| 1777481700 | 24.44° C | 77% | 1008 hPa | 0 mm | - | 0 W/m² | - |
| 1777480799 | 23.89° C | 79% | 1008 hPa | 0 mm | - | 0 W/m² | - |
| 1777480198 | 23.89° C | 78% | 1008 hPa | 0 mm | - | 0 W/m² | - |
| 1777477499 | 21.67° C | 85% | 1008 hPa | 0 mm | - | 0 W/m² | - |
| 1777475399 | 20.56° C | 87% | 1008 hPa | 0 mm | - | 0 W/m² | - |
| 1777472399 | 19.44° C | 89% | 1010 hPa | 0 mm | - | 0 W/m² | - |
| 1777469398 | 17.22° C | 91% | 1010 hPa | 0.25 mm | - | 0 W/m² | - |
| 1777469099 | 17.78° C | 92% | 1010 hPa | 0 mm | - | 0 W/m² | - |
| 1777468799 | 17.78° C | 91% | 1010 hPa | 0 mm | - | 0 W/m² | - |
| 1777468498 | 17.78° C | 90% | 1010 hPa | 0 mm | - | 0 W/m² | - |
| 1777467899 | 17.78° C | 90% | 1009 hPa | 0 mm | - | 0 W/m² | - |
| 1777466099 | 17.22° C | 94% | 1009 hPa | 0 mm | - | 0 W/m² | - |
| 1777465799 | 17.22° C | 94% | 1009 hPa | 0 mm | - | 0 W/m² | - |
* Rain latest hour (hover to see other rain measurements)
** Current wind speed in m/s (hover to see current wind gust speed)